Time;durP1;ratioP1;P1;durP2;ratioP2;P2;SDS_P1;SDS_P2;PMS_P1;PMS_P2;Temp;Humidity;BMP_temperature;BMP_pressure;BME280_temperature;BME280_humidity;BME280_pressure;Samples;Min_cycle;Max_cycle;Signal;HPM_P1;HPM_P2
2022/11/20 00:01:28;;;;;;;67.95;38.65;;;-1.50;99.90;;;;;;5046712;28;20447;-80
2022/11/20 00:03:55;;;;;;;71.53;39.13;;;-1.60;99.90;;;;;;5038573;28;20053;-80
2022/11/20 00:06:22;;;;;;;107.55;49.30;;;-1.60;99.90;;;;;;5028442;28;20053;-80
2022/11/20 00:08:48;;;;;;;92.20;44.60;;;-1.50;99.90;;;;;;5015489;28;20056;-80
2022/11/20 00:11:22;;;;;;;93.68;46.83;;;-1.60;99.90;;;;;;5042962;28;20106;-79
2022/11/20 00:13:50;;;;;;;90.82;46.33;;;-1.50;99.90;;;;;;5021207;28;20057;-79
2022/11/20 00:16:18;;;;;;;86.97;45.40;;;-1.50;99.90;;;;;;5047903;28;20049;-79
2022/11/20 00:18:45;;;;;;;68.47;37.65;;;-1.50;99.90;;;;;;5058739;28;20084;-85
2022/11/20 00:21:13;;;;;;;65.63;34.55;;;-1.40;99.90;;;;;;5019413;28;20460;-80
2022/11/20 00:23:39;;;;;;;58.75;33.03;;;-1.40;99.90;;;;;;5045910;28;20440;-80
2022/11/20 00:26:11;;;;;;;66.18;34.33;;;-1.40;99.90;;;;;;5029377;28;20061;-79
2022/11/20 00:28:37;;;;;;;49.90;28.63;;;-1.30;99.90;;;;;;5048441;28;20072;-79
2022/11/20 00:31:02;;;;;;;49.55;29.10;;;-1.30;99.90;;;;;;5028015;28;20041;-82
2022/11/20 00:33:29;;;;;;;51.95;29.33;;;-1.20;99.90;;;;;;5032846;28;20048;-79
2022/11/20 00:36:00;;;;;;;50.88;28.35;;;-1.20;99.90;;;;;;5066744;28;20052;-79
2022/11/20 00:38:25;;;;;;;54.00;30.25;;;-1.20;99.90;;;;;;5052032;28;20052;-79
2022/11/20 00:40:58;;;;;;;57.42;32.65;;;-1.30;99.90;;;;;;5055436;28;20037;-82
2022/11/20 00:43:25;;;;;;;60.10;32.75;;;-1.10;99.90;;;;;;5039739;28;20045;-79
2022/11/20 00:45:55;;;;;;;59.00;33.00;;;-1.30;99.90;;;;;;5034304;28;20506;-80
2022/11/20 00:48:21;;;;;;;52.10;28.77;;;-1.30;99.90;;;;;;5038399;28;20115;-80
2022/11/20 00:50:46;;;;;;;50.03;28.77;;;-1.30;99.90;;;;;;5019750;28;20434;-85
2022/11/20 00:53:12;;;;;;;46.50;25.48;;;-1.20;99.90;;;;;;5044565;28;20547;-80
2022/11/20 00:55:38;;;;;;;53.45;28.52;;;-1.10;99.90;;;;;;5053295;28;20612;-80
2022/11/20 00:58:03;;;;;;;51.72;27.30;;;-1.10;99.90;;;;;;5038345;28;20084;-79
2022/11/20 01:00:29;;;;;;;47.00;25.60;;;-1.10;99.90;;;;;;5006741;28;20049;-80
2022/11/20 01:02:56;;;;;;;48.13;25.60;;;-1.00;99.90;;;;;;5048766;28;20045;-80
2022/11/20 01:05:21;;;;;;;48.33;26.08;;;-1.00;99.90;;;;;;5036322;28;20069;-81
2022/11/20 01:07:47;;;;;;;45.47;23.98;;;-1.00;99.90;;;;;;5045594;28;20505;-80
2022/11/20 01:10:13;;;;;;;46.10;24.50;;;-1.00;99.90;;;;;;5040433;28;20059;-80
2022/11/20 01:12:38;;;;;;;47.97;24.88;;;-1.00;99.90;;;;;;5051701;28;20051;-80
2022/11/20 01:15:04;;;;;;;44.60;22.23;;;-1.00;99.90;;;;;;5026166;28;20044;-79
2022/11/20 01:17:31;;;;;;;35.58;20.25;;;-1.00;99.90;;;;;;5036676;28;20063;-80
2022/11/20 01:19:57;;;;;;;36.08;19.13;;;-0.90;99.90;;;;;;5039021;28;20394;-80
2022/11/20 01:22:22;;;;;;;35.65;18.95;;;-0.90;99.90;;;;;;5029985;28;20053;-81
2022/11/20 01:24:48;;;;;;;33.10;17.85;;;-0.90;99.90;;;;;;5044727;28;20053;-80
2022/11/20 01:27:14;;;;;;;32.15;17.08;;;-0.90;99.90;;;;;;5015866;28;20060;-80
2022/11/20 01:29:39;;;;;;;29.15;16.65;;;-0.90;99.90;;;;;;5045357;28;20045;-79
2022/11/20 01:32:05;;;;;;;31.45;16.77;;;-0.90;99.90;;;;;;5006633;28;20060;-80
2022/11/20 01:34:31;;;;;;;29.67;16.15;;;-0.90;99.90;;;;;;5052350;28;20041;-80
2022/11/20 01:36:56;;;;;;;32.25;17.33;;;-0.80;99.90;;;;;;5047118;28;20045;-80
2022/11/20 01:39:24;;;;;;;32.53;17.70;;;-0.80;99.90;;;;;;5018896;28;20440;-80
2022/11/20 01:44:48;;;;;;;30.08;16.98;;;-0.80;99.90;;;;;;5052037;28;20060;-79
2022/11/20 01:47:20;;;;;;;27.45;16.52;;;-0.80;99.90;;;;;;5065543;28;20235;-80
2022/11/20 01:49:56;;;;;;;28.83;15.93;;;-0.80;99.90;;;;;;5055186;28;20367;-80
2022/11/20 01:52:37;;;;;;;29.00;15.82;;;-0.70;99.90;;;;;;5050547;28;20068;-80
2022/11/20 01:55:25;;;;;;;30.55;16.35;;;-0.70;99.90;;;;;;5049923;28;20171;-80
2022/11/20 01:57:51;;;;;;;31.02;17.50;;;-0.70;99.90;;;;;;5050952;28;20079;-80
2022/11/20 02:00:19;;;;;;;30.27;17.08;;;-0.60;99.90;;;;;;5034118;28;20037;-80
2022/11/20 02:02:58;;;;;;;30.95;17.25;;;-0.70;99.90;;;;;;5052337;28;20044;-80
2022/11/20 02:05:32;;;;;;;32.83;17.60;;;-0.70;99.90;;;;;;5066377;28;20052;-79
2022/11/20 02:07:59;;;;;;;33.08;18.05;;;-0.60;99.90;;;;;;5059722;28;20060;-85
2022/11/20 02:10:26;;;;;;;32.67;17.13;;;-0.60;99.90;;;;;;5007162;28;20087;-79
2022/11/20 02:15:37;;;;;;;30.88;16.13;;;-0.60;99.90;;;;;;5050139;28;20513;-79
2022/11/20 02:18:05;;;;;;;29.30;17.00;;;-0.60;99.90;;;;;;5051207;28;20065;-80
2022/11/20 02:20:30;;;;;;;33.80;18.58;;;-0.50;99.90;;;;;;5056147;28;20083;-82
2022/11/20 02:23:30;;;;;;;30.90;17.08;;;-0.60;99.90;;;;;;5050469;28;20076;-80
2022/11/20 02:25:58;;;;;;;29.75;17.30;;;-0.50;99.90;;;;;;5007531;28;20048;-79
2022/11/20 02:28:24;;;;;;;28.17;16.88;;;-0.50;99.90;;;;;;5050903;28;20110;-80
2022/11/20 02:30:49;;;;;;;28.15;16.10;;;-0.50;99.90;;;;;;5069394;28;20040;-80
2022/11/20 02:33:15;;;;;;;33.08;18.00;;;-0.40;99.90;;;;;;5064553;28;20487;-79
2022/11/20 02:35:46;;;;;;;29.38;17.10;;;-0.50;99.90;;;;;;5034190;28;20045;-79
2022/11/20 02:38:13;;;;;;;29.55;17.17;;;-0.50;99.90;;;;;;5049877;28;20044;-81
2022/11/20 02:40:39;;;;;;;32.47;16.90;;;-0.40;99.90;;;;;;5058862;28;20049;-80
2022/11/20 02:43:04;;;;;;;32.22;18.15;;;-0.40;99.90;;;;;;5037780;28;20069;-85
2022/11/20 02:45:30;;;;;;;31.60;17.27;;;-0.40;99.90;;;;;;5036722;28;20049;-81
2022/11/20 02:47:56;;;;;;;32.20;18.13;;;-0.40;99.90;;;;;;5050828;28;20044;-80
2022/11/20 02:50:21;;;;;;;31.88;16.45;;;-0.30;99.90;;;;;;5033036;28;20045;-81
2022/11/20 02:52:47;;;;;;;28.15;16.83;;;-0.30;99.90;;;;;;5037147;28;20048;-80
2022/11/20 02:55:13;;;;;;;34.72;17.85;;;-0.40;99.90;;;;;;5047642;28;20057;-80
2022/11/20 02:57:39;;;;;;;29.50;17.55;;;-0.30;99.90;;;;;;5053464;28;20170;-80
2022/11/20 03:00:06;;;;;;;31.27;17.77;;;-0.30;99.90;;;;;;5065940;28;20132;-84
2022/11/20 03:02:32;;;;;;;30.73;16.85;;;-0.40;99.90;;;;;;5051166;28;20049;-79
2022/11/20 03:04:58;;;;;;;28.48;16.30;;;-0.40;99.90;;;;;;5059095;28;20128;-79
2022/11/20 03:07:24;;;;;;;27.20;15.73;;;-0.40;99.90;;;;;;5049287;28;20140;-79
2022/11/20 03:09:50;;;;;;;25.52;15.02;;;-0.40;99.90;;;;;;5049595;28;20045;-79
2022/11/20 03:12:16;;;;;;;30.25;16.35;;;-0.30;99.90;;;;;;5044406;28;20038;-79
2022/11/20 03:14:42;;;;;;;23.60;14.77;;;-0.40;99.90;;;;;;5029874;28;20104;-79
2022/11/20 03:17:09;;;;;;;28.48;15.45;;;-0.40;99.90;;;;;;5042715;28;20076;-85
2022/11/20 03:19:34;;;;;;;24.92;15.10;;;-0.40;99.90;;;;;;5061653;28;20041;-79
2022/11/20 03:22:00;;;;;;;25.55;15.25;;;-0.40;99.90;;;;;;5030828;28;20107;-79
2022/11/20 03:24:26;;;;;;;28.90;15.45;;;-0.40;99.90;;;;;;5025168;28;20045;-79
2022/11/20 03:26:52;;;;;;;29.30;15.65;;;-0.40;99.90;;;;;;5032829;28;20041;-81
2022/11/20 03:29:17;;;;;;;30.27;15.63;;;-0.30;99.90;;;;;;5045456;28;20071;-79
2022/11/20 03:31:43;;;;;;;23.38;14.23;;;-0.30;99.90;;;;;;5050936;28;20075;-80
2022/11/20 03:34:11;;;;;;;26.85;14.63;;;-0.20;99.90;;;;;;5032814;28;20072;-83
2022/11/20 03:36:41;;;;;;;26.70;15.23;;;-0.30;99.90;;;;;;5051384;28;20124;-79
2022/11/20 03:39:08;;;;;;;27.27;15.38;;;-0.20;99.90;;;;;;5053823;28;20489;-80
2022/11/20 03:41:39;;;;;;;25.77;15.10;;;-0.20;99.90;;;;;;5056736;28;20044;-79
2022/11/20 03:44:07;;;;;;;29.60;17.15;;;-0.20;99.90;;;;;;5061955;28;20041;-79
2022/11/20 03:46:33;;;;;;;25.77;16.35;;;-0.20;99.90;;;;;;5031763;28;20506;-83
2022/11/20 03:48:59;;;;;;;26.00;15.95;;;-0.20;99.90;;;;;;5050480;28;20041;-80
2022/11/20 03:51:30;;;;;;;25.15;15.02;;;-0.20;99.90;;;;;;5032056;28;20407;-80
2022/11/20 03:53:59;;;;;;;27.42;14.63;;;-0.20;99.90;;;;;;5051125;28;20402;-80
2022/11/20 03:56:30;;;;;;;28.48;15.52;;;-0.20;99.90;;;;;;5050420;28;20395;-79
2022/11/20 03:58:56;;;;;;;26.27;14.98;;;-0.20;99.90;;;;;;5042355;28;20049;-79
2022/11/20 04:01:37;;;;;;;26.05;15.95;;;-0.20;99.90;;;;;;5033429;28;20430;-79
2022/11/20 04:04:03;;;;;;;24.42;15.20;;;-0.20;99.90;;;;;;5049353;28;20060;-79
2022/11/20 04:06:33;;;;;;;24.48;14.63;;;-0.20;99.90;;;;;;5048149;28;20075;-79
2022/11/20 04:08:59;;;;;;;26.63;14.82;;;-0.10;99.90;;;;;;5050577;28;20513;-79
2022/11/20 04:11:27;;;;;;;28.65;15.20;;;-0.20;99.90;;;;;;5055960;28;20040;-80
2022/11/20 04:13:55;;;;;;;24.73;14.75;;;-0.20;99.90;;;;;;5061885;28;20053;-80
2022/11/20 04:16:22;;;;;;;25.30;14.98;;;-0.20;99.90;;;;;;5065416;28;20075;-80
2022/11/20 04:18:53;;;;;;;24.02;14.02;;;-0.20;99.90;;;;;;5051985;28;20406;-80
2022/11/20 04:21:18;;;;;;;26.50;14.75;;;-0.20;99.90;;;;;;5052637;28;20052;-81
2022/11/20 04:23:44;;;;;;;25.13;14.35;;;-0.10;99.90;;;;;;5035542;28;20098;-80
2022/11/20 04:26:11;;;;;;;26.17;14.98;;;-0.20;99.90;;;;;;5053834;28;20064;-82
2022/11/20 04:28:38;;;;;;;26.23;14.27;;;-0.20;99.90;;;;;;5057621;28;20037;-81
2022/11/20 04:31:08;;;;;;;27.05;14.48;;;-0.20;99.90;;;;;;5052319;28;20136;-79
2022/11/20 04:33:34;;;;;;;27.58;15.73;;;-0.10;99.90;;;;;;5050952;28;20412;-80
2022/11/20 04:36:06;;;;;;;27.30;15.52;;;-0.10;99.90;;;;;;5050041;28;20037;-81
2022/11/20 04:38:32;;;;;;;23.02;14.18;;;-0.10;99.90;;;;;;5050960;28;20101;-80
2022/11/20 04:41:02;;;;;;;23.73;13.77;;;-0.20;99.90;;;;;;5052180;28;20067;-81
2022/11/20 04:43:29;;;;;;;27.23;14.55;;;-0.20;99.90;;;;;;5052433;28;20128;-81
2022/11/20 04:45:56;;;;;;;25.08;14.68;;;-0.20;99.90;;;;;;5037004;28;20052;-81
2022/11/20 04:48:22;;;;;;;24.08;14.57;;;-0.20;99.90;;;;;;5048847;28;20045;-83
2022/11/20 04:50:48;;;;;;;26.30;14.88;;;-0.20;99.90;;;;;;5052392;28;20512;-81
2022/11/20 04:53:14;;;;;;;25.83;14.38;;;-0.10;99.90;;;;;;5051008;28;20045;-80
2022/11/20 04:55:39;;;;;;;27.35;15.52;;;-0.20;99.90;;;;;;5048628;28;20049;-80
2022/11/20 04:58:05;;;;;;;25.20;15.23;;;-0.20;99.90;;;;;;5038058;28;20044;-80
2022/11/20 05:00:31;;;;;;;23.40;13.40;;;-0.20;99.90;;;;;;5034977;28;20045;-81
2022/11/20 05:02:56;;;;;;;52.00;26.48;;;-0.10;99.90;;;;;;5048613;28;20441;-80
2022/11/20 05:05:22;;;;;;;31.23;17.63;;;-0.10;99.90;;;;;;5071637;28;20041;-86
2022/11/20 05:07:48;;;;;;;26.75;15.55;;;0.00;99.90;;;;;;5057177;28;20053;-80
2022/11/20 05:10:14;;;;;;;23.75;13.90;;;-0.10;99.90;;;;;;5044904;28;20103;-79
2022/11/20 05:12:40;;;;;;;25.45;14.63;;;-0.10;99.90;;;;;;5050959;28;20482;-80
2022/11/20 05:15:05;;;;;;;25.23;14.25;;;-0.10;99.90;;;;;;5030885;28;20048;-80
2022/11/20 05:17:31;;;;;;;26.40;15.25;;;-0.20;99.90;;;;;;5022890;28;20104;-80
2022/11/20 05:19:57;;;;;;;25.05;15.25;;;-0.10;99.90;;;;;;5051872;28;20094;-81
2022/11/20 05:22:23;;;;;;;22.88;14.45;;;-0.10;99.90;;;;;;5050782;28;20067;-80
2022/11/20 05:24:48;;;;;;;24.90;14.85;;;-0.20;99.90;;;;;;5033495;28;20056;-80
2022/11/20 05:27:14;;;;;;;38.15;19.45;;;0.00;99.90;;;;;;5034182;28;20053;-80
2022/11/20 05:29:40;;;;;;;31.25;17.20;;;0.00;99.90;;;;;;5051563;28;20049;-80
2022/11/20 05:32:08;;;;;;;34.38;17.77;;;0.00;99.90;;;;;;5059784;28;20041;-80
2022/11/20 05:34:34;;;;;;;26.73;16.10;;;0.00;99.90;;;;;;5034773;28;20402;-80
2022/11/20 05:37:00;;;;;;;24.85;15.10;;;0.00;99.90;;;;;;5065452;28;20048;-83
2022/11/20 05:39:25;;;;;;;24.92;14.23;;;0.00;99.90;;;;;;5034369;28;20509;-80
2022/11/20 05:42:29;;;;;;;25.25;14.23;;;-0.10;99.90;;;;;;5017702;28;20052;-80
2022/11/20 05:44:36;;;;;;;25.55;14.38;;;-0.10;99.90;;;;;;5049652;28;20044;-80
2022/11/20 05:47:02;;;;;;;25.55;14.48;;;-0.10;99.90;;;;;;5035675;28;20498;-80
2022/11/20 05:49:28;;;;;;;25.65;15.35;;;-0.10;99.90;;;;;;5036572;28;20486;-86
2022/11/20 05:51:53;;;;;;;25.20;14.60;;;-0.10;99.90;;;;;;5063133;28;20052;-81
2022/11/20 05:54:19;;;;;;;26.10;15.35;;;-0.10;99.90;;;;;;5018599;28;20466;-80
2022/11/20 05:56:44;;;;;;;26.10;15.18;;;-0.10;99.90;;;;;;5050517;28;20057;-80
2022/11/20 05:59:10;;;;;;;25.67;14.57;;;-0.10;99.90;;;;;;5034188;28;20044;-80
2022/11/20 06:01:36;;;;;;;26.33;14.55;;;-0.10;99.90;;;;;;5035652;28;20064;-81
2022/11/20 06:04:02;;;;;;;26.17;14.65;;;-0.10;99.90;;;;;;5050343;28;20056;-80
2022/11/20 06:06:28;;;;;;;23.27;14.65;;;-0.10;99.90;;;;;;5049208;28;20049;-83
2022/11/20 06:08:55;;;;;;;25.50;13.40;;;-0.10;99.90;;;;;;5037115;28;20541;-82
2022/11/20 06:11:20;;;;;;;24.05;14.38;;;0.00;99.90;;;;;;5019237;28;20046;-81
2022/11/20 06:13:47;;;;;;;22.15;13.85;;;0.00;99.90;;;;;;5015632;28;20064;-81
2022/11/20 06:16:15;;;;;;;24.48;15.65;;;0.00;99.90;;;;;;5040305;28;20482;-81
2022/11/20 06:18:41;;;;;;;22.23;14.02;;;0.00;99.90;;;;;;5050098;28;20647;-81
2022/11/20 06:21:09;;;;;;;23.17;13.75;;;-0.10;99.90;;;;;;5033345;28;20041;-80
2022/11/20 06:23:36;;;;;;;22.83;14.43;;;-0.10;91.10;;;;;;5041786;28;20055;-81
2022/11/20 06:26:07;;;;;;;21.42;12.95;;;-0.10;88.70;;;;;;5024821;28;20064;-81
2022/11/20 06:28:33;;;;;;;20.30;12.55;;;-0.10;90.20;;;;;;5052871;28;20056;-84
2022/11/20 06:30:59;;;;;;;22.77;13.02;;;-0.10;89.90;;;;;;5051514;28;20048;-80
2022/11/20 06:33:27;;;;;;;24.08;13.05;;;-0.10;88.20;;;;;;5039422;28;20094;-82
2022/11/20 06:35:57;;;;;;;20.73;12.50;;;-0.10;89.70;;;;;;5016623;28;20603;-80
2022/11/20 06:38:22;;;;;;;21.60;12.05;;;-0.10;86.50;;;;;;5038838;28;20467;-81
2022/11/20 06:40:48;;;;;;;19.13;11.30;;;-0.10;79.10;;;;;;5025838;28;20190;-81
2022/11/20 06:43:14;;;;;;;21.90;12.82;;;-0.10;71.00;;;;;;5003384;28;20072;-81
2022/11/20 06:45:39;;;;;;;21.30;12.38;;;-0.10;64.00;;;;;;5032871;28;20124;-81
2022/11/20 06:48:05;;;;;;;22.05;12.25;;;-0.10;62.80;;;;;;5025061;28;20087;-81
2022/11/20 06:50:31;;;;;;;20.65;12.18;;;-0.10;60.60;;;;;;5033762;28;20074;-81
2022/11/20 06:52:59;;;;;;;21.85;12.63;;;-0.10;59.10;;;;;;5039688;28;20049;-80
2022/11/20 06:55:25;;;;;;;21.05;12.40;;;-0.10;48.10;;;;;;5047087;28;20049;-81
2022/11/20 06:57:51;;;;;;;23.48;12.15;;;-0.10;38.30;;;;;;5045827;28;20052;-82
2022/11/20 07:00:16;;;;;;;19.42;12.10;;;-0.10;27.50;;;;;;5049072;28;20393;-80
2022/11/20 07:02:42;;;;;;;22.38;13.00;;;-0.10;37.70;;;;;;5044290;28;20052;-82
2022/11/20 07:05:08;;;;;;;21.05;12.85;;;0.10;44.90;;;;;;5012090;28;20041;-82
2022/11/20 07:07:33;;;;;;;20.67;12.23;;;0.00;48.50;;;;;;5030656;28;20054;-80
2022/11/20 07:09:59;;;;;;;18.67;11.93;;;0.00;51.60;;;;;;5048813;28;20120;-81
2022/11/20 07:12:25;;;;;;;18.20;11.95;;;0.10;53.00;;;;;;5031855;28;20127;-81
2022/11/20 07:14:50;;;;;;;27.80;17.85;;;0.10;54.00;;;;;;5032472;28;20080;-81
2022/11/20 07:17:16;;;;;;;23.52;12.52;;;0.10;43.80;;;;;;5038568;28;20383;-81
2022/11/20 07:19:42;;;;;;;20.40;11.95;;;0.00;29.00;;;;;;5044862;28;20050;-82
2022/11/20 07:22:08;;;;;;;20.08;11.75;;;0.10;24.20;;;;;;5033498;28;20058;-82
2022/11/20 07:24:34;;;;;;;18.65;11.43;;;0.10;24.00;;;;;;5045837;28;20052;-80
2022/11/20 07:27:00;;;;;;;19.10;12.30;;;0.10;26.50;;;;;;5041739;28;20821;-80
2022/11/20 07:29:26;;;;;;;19.13;12.10;;;0.10;28.30;;;;;;5046618;28;20049;-80
2022/11/20 07:31:52;;;;;;;20.33;12.15;;;0.10;22.60;;;;;;5031461;28;20047;-81
2022/11/20 07:34:17;;;;;;;22.40;12.13;;;0.10;22.50;;;;;;5046598;28;20045;-82
2022/11/20 07:36:43;;;;;;;20.58;11.32;;;0.10;18.90;;;;;;5014326;28;20060;-85
2022/11/20 07:39:08;;;;;;;19.50;11.38;;;0.10;14.50;;;;;;5033948;28;20040;-81
2022/11/20 07:41:34;;;;;;;19.20;12.18;;;0.20;10.80;;;;;;5033496;28;20044;-79
2022/11/20 07:44:03;;;;;;;19.83;12.55;;;0.10;12.70;;;;;;5026525;28;20119;-79
2022/11/20 07:46:29;;;;;;;20.52;12.52;;;0.10;7.40;;;;;;5033447;28;20529;-82
2022/11/20 07:48:54;;;;;;;22.13;13.02;;;0.20;1.00;;;;;;5046439;28;20045;-81
2022/11/20 07:51:20;;;;;;;20.10;12.95;;;0.20;1.00;;;;;;5021973;28;20048;-85
2022/11/20 07:53:46;;;;;;;19.02;12.10;;;0.20;2.60;;;;;;5036666;28;20467;-87
2022/11/20 07:56:13;;;;;;;18.85;12.45;;;0.20;1.00;;;;;;5048834;28;20094;-81
2022/11/20 07:58:39;;;;;;;21.45;12.95;;;0.20;1.30;;;;;;5040346;28;20052;-81
2022/11/20 08:01:07;;;;;;;23.10;13.00;;;0.30;2.90;;;;;;5053597;28;20048;-81
2022/11/20 08:03:33;;;;;;;21.60;12.52;;;0.30;3.40;;;;;;5034706;28;20386;-81
2022/11/20 08:06:02;;;;;;;23.67;11.85;;;0.30;1.90;;;;;;5032264;28;20044;-81
2022/11/20 08:08:28;;;;;;;20.20;12.43;;;0.40;1.00;;;;;;5015359;28;20155;-83
2022/11/20 08:14:11;;;;;;;20.90;12.52;;;0.40;1.00;;;;;;5033691;28;20103;-82
2022/11/20 08:16:26;;;;;;;20.00;11.63;;;0.50;1.00;;;;;;5034559;28;20080;-81
2022/11/20 08:18:51;;;;;;;20.50;12.38;;;0.50;1.00;;;;;;5049581;28;20044;-82
2022/11/20 08:21:17;;;;;;;19.98;12.68;;;0.50;1.00;;;;;;5052138;28;20076;-82
2022/11/20 08:23:43;;;;;;;20.88;13.13;;;0.60;1.00;;;;;;5018073;28;20087;-82
2022/11/20 08:26:08;;;;;;;24.95;14.50;;;0.60;1.00;;;;;;5017778;28;20040;-83
2022/11/20 08:28:34;;;;;;;21.55;12.50;;;0.60;1.00;;;;;;5035145;28;20045;-81
2022/11/20 08:31:01;;;;;;;53.65;25.20;;;0.60;1.00;;;;;;5063985;28;20041;-82
2022/11/20 08:33:27;;;;;;;34.25;16.23;;;0.60;1.00;;;;;;5048744;28;20496;-83
2022/11/20 08:35:53;;;;;;;30.38;16.10;;;0.60;1.00;;;;;;5050398;28;20140;-83
2022/11/20 08:38:19;;;;;;;43.33;20.55;;;0.60;1.00;;;;;;5035646;28;20149;-83
2022/11/20 08:41:23;;;;;;;31.85;18.08;;;0.70;1.00;;;;;;5033665;28;20044;-81
2022/11/20 08:43:30;;;;;;;20.95;13.40;;;0.70;1.00;;;;;;5053434;28;20482;-80
2022/11/20 08:45:57;;;;;;;23.10;14.02;;;0.70;1.00;;;;;;5039702;28;20090;-81
2022/11/20 08:48:22;;;;;;;19.00;11.07;;;0.80;1.00;;;;;;5046689;28;20049;-81
2022/11/20 08:50:48;;;;;;;23.33;12.68;;;0.80;1.00;;;;;;5034206;28;20376;-82
2022/11/20 08:53:14;;;;;;;18.70;11.07;;;0.80;1.00;;;;;;5037363;28;20037;-80
2022/11/20 08:55:40;;;;;;;17.88;10.48;;;0.80;1.00;;;;;;5050720;28;20087;-82
2022/11/20 08:58:06;;;;;;;17.98;10.43;;;0.80;1.00;;;;;;5045273;28;20077;-82
2022/11/20 09:00:33;;;;;;;16.80;10.77;;;0.90;1.00;;;;;;5030893;28;20056;-83
2022/11/20 09:03:00;;;;;;;15.05;9.80;;;0.90;1.00;;;;;;5034025;28;20036;-83
2022/11/20 09:05:26;;;;;;;15.32;9.82;;;0.90;1.00;;;;;;5033308;28;20037;-82
2022/11/20 09:07:55;;;;;;;18.75;9.93;;;1.00;1.00;;;;;;5027111;28;20048;-82
2022/11/20 09:10:21;;;;;;;14.98;10.07;;;1.00;1.00;;;;;;5018371;28;20064;-81
2022/11/20 09:12:49;;;;;;;16.98;10.10;;;1.00;1.00;;;;;;5036562;28;20037;-81
2022/11/20 09:15:15;;;;;;;16.10;9.90;;;1.00;1.00;;;;;;5035660;28;20047;-86
2022/11/20 09:17:40;;;;;;;16.75;10.60;;;1.00;1.00;;;;;;5056342;28;20045;-83
2022/11/20 09:20:07;;;;;;;17.13;10.20;;;1.10;1.00;;;;;;5037976;28;20784;-82
2022/11/20 09:22:32;;;;;;;15.43;10.07;;;1.20;1.00;;;;;;5036596;28;20049;-80
2022/11/20 09:24:58;;;;;;;17.35;10.75;;;1.20;1.00;;;;;;5038989;28;20409;-85
2022/11/20 09:27:24;;;;;;;14.93;9.25;;;1.20;1.00;;;;;;5032951;28;20055;-79
2022/11/20 09:29:49;;;;;;;14.35;9.27;;;1.20;1.00;;;;;;5051085;28;20474;-79
2022/11/20 09:32:15;;;;;;;15.40;9.77;;;1.30;1.00;;;;;;5045846;28;20055;-79
2022/11/20 09:34:40;;;;;;;16.52;10.10;;;1.40;1.00;;;;;;5060776;28;20124;-80
2022/11/20 09:37:06;;;;;;;17.25;10.60;;;1.50;1.00;;;;;;5042282;28;20103;-79
2022/11/20 09:39:32;;;;;;;18.70;10.15;;;1.50;1.00;;;;;;5043447;28;20044;-84
2022/11/20 09:42:16;;;;;;;15.93;10.15;;;1.60;1.00;;;;;;5036582;28;20045;-85
2022/11/20 09:44:54;;;;;;;16.05;9.43;;;1.70;1.00;;;;;;5036387;28;20045;-80
2022/11/20 09:47:36;;;;;;;15.23;9.65;;;1.70;1.00;;;;;;5038735;28;20056;-82
2022/11/20 09:50:34;;;;;;;15.48;9.18;;;1.70;1.00;;;;;;5034575;28;20094;-85
2022/11/20 09:53:30;;;;;;;14.88;8.98;;;1.80;1.00;;;;;;5010396;28;20115;-84
2022/11/20 09:55:56;;;;;;;14.93;9.30;;;1.70;1.00;;;;;;5042647;28;20041;-81
2022/11/20 09:58:42;;;;;;;13.63;8.27;;;1.70;1.00;;;;;;5067263;28;20076;-79
2022/11/20 10:01:16;;;;;;;13.70;8.52;;;1.80;1.00;;;;;;5071614;28;20074;-81
2022/11/20 10:03:55;;;;;;;13.57;8.73;;;1.70;1.00;;;;;;5051435;28;20107;-81
2022/11/20 10:06:33;;;;;;;14.93;8.98;;;1.70;1.00;;;;;;5051099;28;20535;-82
2022/11/20 10:09:04;;;;;;;15.35;9.27;;;1.70;1.00;;;;;;5035830;28;20444;-80
2022/11/20 10:11:47;;;;;;;14.80;8.57;;;1.80;1.00;;;;;;5024003;28;20051;-80
2022/11/20 10:14:22;;;;;;;15.05;9.63;;;1.90;1.00;;;;;;5064465;28;20072;-81
2022/11/20 10:16:53;;;;;;;16.02;9.57;;;1.90;4.40;;;;;;5050008;28;20094;-80
2022/11/20 10:20:07;;;;;;;14.27;9.27;;;2.10;27.70;;;;;;5050785;28;20144;-81
2022/11/20 10:22:42;;;;;;;16.60;9.30;;;2.20;56.90;;;;;;5015528;28;20559;-81
2022/11/20 10:25:20;;;;;;;14.55;8.85;;;2.30;26.20;;;;;;5047515;28;20041;-84
2022/11/20 10:27:55;;;;;;;14.40;8.27;;;2.30;8.30;;;;;;5026010;28;20390;-84
2022/11/20 10:30:25;;;;;;;15.05;8.90;;;2.30;1.00;;;;;;5063751;28;20142;-79
2022/11/20 10:33:22;;;;;;;14.43;9.00;;;2.50;1.00;;;;;;5035115;28;20048;-83
2022/11/20 10:36:12;;;;;;;16.25;9.27;;;2.70;1.00;;;;;;5062137;28;20067;-82
2022/11/20 10:38:54;;;;;;;15.40;8.77;;;2.80;1.00;;;;;;5067469;28;20045;-81
2022/11/20 10:41:29;;;;;;;12.90;8.20;;;2.90;1.00;;;;;;5024552;28;20048;-80
2022/11/20 10:47:17;;;;;;;14.90;8.65;;;2.90;99.90;;;;;;5039212;28;20082;-78
2022/11/20 10:49:46;;;;;;;14.77;9.85;;;2.90;1.00;;;;;;5060535;28;20056;-80
2022/11/20 10:52:31;;;;;;;14.40;9.45;;;2.90;1.00;;;;;;5033022;28;20080;-83
2022/11/20 10:55:21;;;;;;;15.50;9.27;;;3.00;1.00;;;;;;5040830;28;20053;-83
2022/11/20 10:58:03;;;;;;;16.23;10.00;;;3.10;1.00;;;;;;5044355;28;20123;-77
2022/11/20 11:00:32;;;;;;;15.77;9.55;;;3.20;99.90;;;;;;5034385;28;20041;-79
2022/11/20 11:03:02;;;;;;;13.80;9.45;;;3.20;66.10;;;;;;5030505;28;20052;-80
2022/11/20 11:05:56;;;;;;;15.15;9.52;;;3.20;52.00;;;;;;5062915;28;20111;-83
2022/11/20 11:08:34;;;;;;;14.52;9.52;;;3.10;99.90;;;;;;5066072;28;20467;-79
2022/11/20 11:11:21;;;;;;;17.40;10.85;;;3.10;99.90;;;;;;5063259;28;20107;-79
2022/11/20 11:13:47;;;;;;;13.23;9.23;;;3.10;99.90;;;;;;5045678;28;20064;-79
2022/11/20 11:16:25;;;;;;;14.18;8.73;;;3.20;87.20;;;;;;5061718;28;20041;-82
2022/11/20 11:18:51;;;;;;;13.60;8.57;;;3.10;99.90;;;;;;5031707;28;20410;-80
2022/11/20 11:21:25;;;;;;;13.45;8.63;;;3.10;99.90;;;;;;5066298;28;20720;-79
2022/11/20 11:24:03;;;;;;;12.13;8.00;;;3.10;99.90;;;;;;5039290;28;20441;-81
2022/11/20 11:26:29;;;;;;;13.00;7.95;;;3.10;99.90;;;;;;5046446;28;20051;-80
2022/11/20 11:28:59;;;;;;;13.25;8.60;;;3.00;99.90;;;;;;5067237;28;20074;-79
2022/11/20 11:31:29;;;;;;;14.45;8.77;;;3.00;34.80;;;;;;5065748;28;20048;-80
2022/11/20 11:34:13;;;;;;;14.40;8.32;;;3.00;53.30;;;;;;5062296;28;20045;-79
2022/11/20 11:36:38;;;;;;;14.98;8.65;;;3.00;51.70;;;;;;5066460;28;20125;-79
2022/11/20 11:39:10;;;;;;;14.05;7.70;;;3.10;43.30;;;;;;5029316;28;20478;-79
2022/11/20 11:41:36;;;;;;;12.38;8.30;;;3.00;32.70;;;;;;5044302;28;20402;-79
2022/11/20 11:47:18;;;;;;;;;;;3.10;14.60;;;;;;5060175;28;20132;-80
2022/11/20 11:49:44;;;;;;;13.80;7.90;;;3.00;1.00;;;;;;5044668;28;20012;-80
2022/11/20 11:52:21;;;;;;;11.35;7.10;;;3.00;99.00;;;;;;5049964;28;20119;-80
2022/11/20 11:55:01;;;;;;;11.57;7.97;;;3.10;99.90;;;;;;5064036;28;20079;-79
2022/11/20 11:57:52;;;;;;;13.57;8.73;;;3.10;99.90;;;;;;5059231;28;20048;-81
2022/11/20 12:00:20;;;;;;;13.18;8.70;;;3.10;99.90;;;;;;5038529;28;20049;-85
2022/11/20 12:02:48;;;;;;;13.07;8.00;;;3.10;99.90;;;;;;5059966;28;20050;-80
2022/11/20 12:05:24;;;;;;;10.32;7.20;;;3.20;99.90;;;;;;5065492;28;20041;-81
2022/11/20 12:07:56;;;;;;;12.63;7.78;;;3.30;99.90;;;;;;5049261;28;20053;-80
2022/11/20 12:10:24;;;;;;;14.23;8.90;;;3.30;99.90;;;;;;5046706;28;20505;-80
2022/11/20 12:13:00;;;;;;;16.75;8.60;;;3.40;99.90;;;;;;5042194;28;20485;-80
2022/11/20 12:15:30;;;;;;;11.73;8.07;;;3.50;99.90;;;;;;5030589;28;20533;-80
2022/11/20 12:17:56;;;;;;;10.95;7.90;;;3.60;99.90;;;;;;5047159;28;20057;-80
2022/11/20 12:20:38;;;;;;;10.95;7.45;;;3.60;99.90;;;;;;5025843;28;20052;-80
2022/11/20 12:23:15;;;;;;;10.10;7.55;;;3.70;99.90;;;;;;5060130;28;20098;-80
2022/11/20 12:25:46;;;;;;;11.23;7.15;;;3.70;99.90;;;;;;5064557;28;20076;-79
2022/11/20 12:28:18;;;;;;;13.10;8.70;;;3.70;23.50;;;;;;5033270;28;20049;-80
2022/11/20 12:31:14;;;;;;;14.35;8.60;;;3.60;5.00;;;;;;5067743;28;20053;-80
2022/11/20 12:34:35;;;;;;;13.13;7.55;;;3.60;1.00;;;;;;5060100;28;20403;-80
2022/11/20 12:37:24;;;;;;;12.73;7.07;;;3.60;44.90;;;;;;5057460;28;20521;-80
2022/11/20 12:39:53;;;;;;;11.23;7.45;;;3.50;25.00;;;;;;5072231;28;20048;-80
2022/11/20 12:46:19;;;;;;;10.48;6.40;;;3.40;5.60;;;;;;5064948;28;20052;-80
2022/11/20 12:49:03;;;;;;;10.98;7.78;;;3.30;15.00;;;;;;5024953;28;20160;-80
2022/11/20 12:51:42;;;;;;;14.40;8.82;;;3.20;1.00;;;;;;5048609;28;20053;-81
2022/11/20 12:54:44;;;;;;;11.77;8.18;;;3.30;1.00;;;;;;5061774;28;20037;-80
2022/11/20 12:57:50;;;;;;;11.90;7.72;;;3.40;1.00;;;;;;5050546;28;20098;-79
2022/11/20 13:00:16;;;;;;;10.73;7.43;;;3.60;2.40;;;;;;5038081;28;20056;-80
2022/11/20 13:03:03;;;;;;;10.52;7.07;;;3.70;1.70;;;;;;5032290;28;20045;-82
2022/11/20 13:05:35;;;;;;;10.63;7.38;;;3.90;1.00;;;;;;5042826;28;20118;-80
2022/11/20 13:08:01;;;;;;;12.52;7.53;;;4.10;1.00;;;;;;5048440;28;20046;-81
2022/11/20 13:10:45;;;;;;;9.10;6.50;;;4.10;99.90;;;;;;5043668;28;20044;-81